Sawyer, Washington
Current Conditions -  °F | °C
As of 3:56 AM on Monday 22 Dec 2014 (Local Time) from K1YT Reporting Station
Clear Clear  
Wind Chill: 37°   Ceiling: Unl
Heat Index: 37°   Visibility: 10mi
Dew Point: 32°   Wind: 3mph
Humidity: 81%   Direction: 120°ESE
Pressure: 30.13"   Gusts: NA
Location:  46.4639°N, 120.412°W
Report Text: K1YT 221156Z AUTO 12003KT 10SM CLR 03/00 A3013 RMK AO2 SLPNO 70002 T00281001 10076 20023 52014
Loading
Personal Weather Stations






























Interactive Weather Map New forecast layout! Learn more

10-Day Weather Forecast

Advertisements
Track Severe Weather on mobile